Time;durP1;ratioP1;P1;durP2;ratioP2;P2;SDS_P1;SDS_P2;PMS_P1;PMS_P2;Temp;Humidity;BMP_temperature;BMP_pressure;BME280_temperature;BME280_humidity;BME280_pressure;Samples;Min_cycle;Max_cycle;Signal;HPM_P1;HPM_P2
2022/11/06 00:00:16;;;;;;;36.00;25.10;;;;;;;18.54;53.06;100800.42;101963;1334;61327;-82
2022/11/06 00:02:42;;;;;;;34.10;25.00;;;;;;;18.53;53.14;100803.66;102089;1326;61404;-81
2022/11/06 00:07:52;;;;;;;35.00;24.90;;;;;;;18.51;53.32;100806.46;102112;1326;61464;-82
2022/11/06 00:10:18;;;;;;;37.40;26.00;;;;;;;18.51;53.27;100804.70;101969;1334;61335;-82
2022/11/06 00:12:43;;;;;;;34.20;25.70;;;;;;;18.50;53.21;100804.90;102037;1329;61338;-83
2022/11/06 00:15:09;;;;;;;35.60;25.60;;;;;;;18.50;53.13;100802.79;102039;1328;61310;-82
2022/11/06 00:17:35;;;;;;;36.90;27.20;;;;;;;18.49;53.28;100802.11;102035;1329;61300;-82
2022/11/06 00:20:01;;;;;;;37.00;26.00;;;;;;;18.49;53.27;100803.52;102003;1328;61109;-82
2022/11/06 00:22:26;;;;;;;33.90;25.70;;;;;;;18.48;53.30;100800.02;102038;1329;61342;-83
2022/11/06 00:24:52;;;;;;;33.00;25.90;;;;;;;18.48;53.35;100799.33;102057;1329;61250;-82
2022/11/06 00:27:17;;;;;;;33.00;25.20;;;;;;;18.48;53.25;100796.66;102055;1323;61329;-82
2022/11/06 00:29:43;;;;;;;39.20;26.40;;;;;;;18.48;53.25;100800.59;102055;1326;61408;-82
2022/11/06 00:32:08;;;;;;;34.30;25.50;;;;;;;18.47;53.39;100800.27;101985;1329;61331;-82
2022/11/06 00:34:34;;;;;;;34.60;25.40;;;;;;;18.47;53.46;100794.23;102046;1326;61500;-81
2022/11/06 00:36:59;;;;;;;37.50;27.30;;;;;;;18.47;53.49;100793.52;102092;1326;61373;-81
2022/11/06 00:39:25;;;;;;;39.60;27.30;;;;;;;18.47;53.39;100795.67;102069;1329;61393;-83
2022/11/06 00:41:50;;;;;;;34.00;25.10;;;;;;;18.46;53.33;100793.38;101973;1329;61326;-83
2022/11/06 00:44:16;;;;;;;35.80;25.20;;;;;;;18.48;53.45;100792.92;102083;1326;61325;-83
2022/11/06 00:46:41;;;;;;;37.00;25.50;;;;;;;18.52;53.55;100793.20;102051;1329;61393;-82
2022/11/06 00:49:07;;;;;;;38.40;25.60;;;;;;;18.54;53.67;100789.49;102196;1324;61297;-83
2022/11/06 00:51:34;;;;;;;37.30;26.10;;;;;;;18.58;53.67;100783.02;102105;1326;61844;-83
2022/11/06 00:54:03;;;;;;;34.80;26.90;;;;;;;18.61;53.57;100781.61;101988;1330;61280;-83
2022/11/06 00:56:29;;;;;;;37.60;26.90;;;;;;;18.63;53.67;100783.98;102053;1333;61261;-82
2022/11/06 00:58:55;;;;;;;34.80;25.70;;;;;;;18.65;53.54;100785.13;102046;1327;61430;-82
2022/11/06 01:01:20;;;;;;;36.00;26.20;;;;;;;18.65;53.53;100785.99;101971;1329;61274;-82
2022/11/06 01:03:47;;;;;;;35.20;26.20;;;;;;;18.66;53.40;100788.82;102214;1324;61732;-82
2022/11/06 01:06:14;;;;;;;33.30;25.00;;;;;;;18.66;53.40;100785.95;102125;1329;61948;-82
2022/11/06 01:08:40;;;;;;;37.00;25.90;;;;;;;18.66;53.53;100785.08;101969;1329;61159;-82
2022/11/06 01:11:10;;;;;;;34.60;25.80;;;;;;;18.65;53.47;100778.70;101953;1329;61304;-82
2022/11/06 01:13:35;;;;;;;36.90;26.40;;;;;;;18.64;53.38;100783.40;102099;1327;61194;-82
2022/11/06 01:16:03;;;;;;;44.20;27.00;;;;;;;18.63;53.51;100779.88;102064;1326;61713;-82
2022/11/06 01:18:29;;;;;;;37.20;26.50;;;;;;;18.63;53.24;100782.42;102035;1327;72538;-82
2022/11/06 01:20:54;;;;;;;36.90;27.50;;;;;;;18.61;53.31;100783.20;102017;1330;61470;-82
2022/11/06 01:23:20;;;;;;;39.00;27.00;;;;;;;18.61;53.41;100786.27;102049;1329;61336;-82
2022/11/06 01:25:55;;;;;;;33.50;26.00;;;;;;;18.59;53.43;100787.27;102054;1327;61428;-82
2022/11/06 01:28:21;;;;;;;39.10;26.50;;;;;;;18.58;53.32;100786.23;101987;1329;72609;-82
2022/11/06 01:30:46;;;;;;;38.60;27.30;;;;;;;18.56;53.35;100783.50;102146;1330;61475;-81
2022/11/06 01:33:12;;;;;;;38.30;27.70;;;;;;;18.56;53.47;100789.23;102125;1326;61317;-82
2022/11/06 01:35:49;;;;;;;38.00;28.30;;;;;;;18.55;53.45;100792.48;102048;1330;61404;-83
2022/11/06 01:38:14;;;;;;;39.80;25.70;;;;;;;18.54;53.55;100801.65;102060;1326;73640;-82
2022/11/06 01:40:44;;;;;;;38.10;24.50;;;;;;;18.53;53.45;100799.36;102032;1329;61335;-82
2022/11/06 01:43:20;;;;;;;;;;;;;;;18.53;53.51;100797.97;102043;1326;61483;-82
2022/11/06 01:45:51;;;;;;;35.50;26.10;;;;;;;18.50;53.41;100799.90;102126;1323;61212;-83
2022/11/06 01:48:18;;;;;;;37.80;27.10;;;;;;;18.50;53.52;100803.46;102064;1329;74315;-83
2022/11/06 01:50:45;;;;;;;37.10;27.60;;;;;;;18.50;53.54;100800.83;102006;1329;74629;-82
2022/11/06 01:53:11;;;;;;;38.80;27.60;;;;;;;18.49;53.50;100800.86;102063;1327;61632;-82
2022/11/06 01:55:39;;;;;;;36.80;27.70;;;;;;;18.48;53.45;100796.98;101993;1329;61168;-82
2022/11/06 01:58:06;;;;;;;36.30;26.90;;;;;;;18.48;53.69;100798.60;101966;1326;73511;-82
2022/11/06 02:00:31;;;;;;;33.50;26.40;;;;;;;18.48;53.46;100797.00;102078;1328;74531;-83
2022/11/06 02:02:57;;;;;;;37.30;25.80;;;;;;;18.47;53.66;100794.90;102063;1320;61318;-83
2022/11/06 02:05:23;;;;;;;37.30;27.40;;;;;;;18.47;53.62;100796.55;102072;1327;61383;-83
2022/11/06 02:07:48;;;;;;;33.90;26.20;;;;;;;18.47;53.65;100797.95;102062;1329;61315;-83
2022/11/06 02:10:14;;;;;;;36.70;26.60;;;;;;;18.47;53.60;100803.16;102049;1329;61369;-82
2022/11/06 02:12:42;;;;;;;38.60;26.70;;;;;;;18.46;53.73;100803.89;102114;1324;61203;-82
2022/11/06 02:15:20;;;;;;;36.70;25.50;;;;;;;18.46;53.55;100798.00;102060;1329;61314;-82
2022/11/06 02:17:49;;;;;;;37.10;24.80;;;;;;;18.48;53.70;100809.47;102201;1329;62129;-81
2022/11/06 02:21:05;;;;;;;30.90;24.20;;;;;;;18.51;53.83;100809.48;102126;1326;72645;-82
2022/11/06 02:23:58;;;;;;;33.20;24.20;;;;;;;18.54;53.99;100807.31;101806;1333;74579;-82
2022/11/06 02:27:00;;;;;;;37.40;26.00;;;;;;;18.58;54.05;100808.52;101832;1334;61344;-82
2022/11/06 02:29:32;;;;;;;35.60;25.80;;;;;;;18.61;53.87;100814.61;101798;1333;62575;-82
2022/11/06 02:31:58;;;;;;;38.30;26.70;;;;;;;18.63;53.86;100816.98;101788;1335;71866;-83
2022/11/06 02:34:24;;;;;;;41.30;26.80;;;;;;;18.64;53.69;100819.23;101773;1334;61297;-83
2022/11/06 02:36:52;;;;;;;38.80;26.80;;;;;;;18.65;53.70;100822.59;101776;1335;62015;-83
2022/11/06 02:39:18;;;;;;;36.10;26.70;;;;;;;18.65;53.72;100827.95;101790;1333;61533;-82
2022/11/06 02:41:44;;;;;;;38.90;27.20;;;;;;;18.64;53.67;100831.50;101778;1332;61345;-83
2022/11/06 02:44:13;;;;;;;37.90;26.80;;;;;;;18.64;53.48;100831.91;101777;1332;61342;-82
2022/11/06 02:46:40;;;;;;;33.80;25.80;;;;;;;18.63;53.57;100833.35;101873;1332;61320;-82
2022/11/06 02:49:32;;;;;;;36.70;25.50;;;;;;;18.62;53.57;100835.02;101762;1339;61288;-83
2022/11/06 02:51:59;;;;;;;37.80;26.20;;;;;;;18.61;53.65;100835.61;101777;1336;72495;-83
2022/11/06 02:54:25;;;;;;;36.50;25.60;;;;;;;18.60;53.69;100836.38;101936;1326;74525;-83
2022/11/06 02:56:51;;;;;;;36.10;26.10;;;;;;;18.59;53.52;100836.80;102007;1329;61622;-82
2022/11/06 02:59:40;;;;;;;39.20;26.70;;;;;;;18.58;53.47;100842.55;102042;1333;61310;-82
2022/11/06 03:02:07;;;;;;;40.30;27.10;;;;;;;18.57;53.52;100847.29;102027;1326;72406;-82
2022/11/06 03:04:36;;;;;;;36.20;27.20;;;;;;;18.56;53.60;100850.35;102091;1329;75868;-83
2022/11/06 03:07:13;;;;;;;35.60;25.80;;;;;;;18.55;53.56;100858.44;102101;1329;61209;-84
2022/11/06 03:09:39;;;;;;;36.90;25.50;;;;;;;18.54;53.54;100858.30;102012;1329;61481;-83
2022/11/06 03:12:24;;;;;;;39.40;26.80;;;;;;;18.53;53.52;100857.45;102038;1334;61468;-82
2022/11/06 03:14:56;;;;;;;33.80;25.90;;;;;;;18.52;53.52;100862.16;102107;1320;74971;-82
2022/11/06 03:17:30;;;;;;;38.60;25.50;;;;;;;18.51;53.56;100861.33;102080;1326;61205;-82
2022/11/06 03:20:05;;;;;;;34.30;25.70;;;;;;;18.51;53.52;100861.53;101957;1328;60336;-83
2022/11/06 03:22:40;;;;;;;39.10;26.00;;;;;;;18.50;53.59;100860.84;102103;1332;73319;-82
2022/11/06 03:25:28;;;;;;;34.90;25.10;;;;;;;18.50;53.68;100856.80;102007;1326;74849;-82
2022/11/06 03:28:22;;;;;;;36.10;24.80;;;;;;;18.48;53.60;100862.05;102082;1326;61191;-82
2022/11/06 03:30:51;;;;;;;32.60;25.00;;;;;;;18.48;53.61;100860.63;102157;1326;61160;-82
2022/11/06 03:33:23;;;;;;;33.10;23.60;;;;;;;18.48;53.58;100857.09;102147;1326;73601;-82
2022/11/06 03:35:59;;;;;;;39.40;25.50;;;;;;;18.47;53.65;100853.22;102019;1327;75705;-82
2022/11/06 03:38:33;;;;;;;36.60;25.30;;;;;;;18.47;53.59;100853.23;102103;1326;61129;-82
2022/11/06 03:41:11;;;;;;;34.50;24.20;;;;;;;18.46;53.62;100857.54;102072;1329;61225;-82
2022/11/06 03:43:37;;;;;;;36.80;24.50;;;;;;;18.46;53.77;100857.73;102035;1326;73655;-83
2022/11/06 03:46:05;;;;;;;35.60;25.90;;;;;;;18.46;53.63;100858.45;102095;1326;61312;-82
2022/11/06 03:48:33;;;;;;;36.60;25.90;;;;;;;18.46;53.66;100855.42;102049;1328;61392;-82
2022/11/06 03:51:31;;;;;;;39.30;25.00;;;;;;;18.45;53.76;100852.61;102072;1332;61414;-83
2022/11/06 03:54:02;;;;;;;37.50;24.60;;;;;;;18.44;53.67;100856.56;102205;1326;72759;-82
2022/11/06 03:56:36;;;;;;;36.80;23.90;;;;;;;18.45;53.78;100854.77;102058;1333;75398;-82
2022/11/06 03:59:02;;;;;;;29.00;22.10;;;;;;;18.44;53.86;100853.71;102140;1317;61346;-82
2022/11/06 04:01:33;;;;;;;32.70;21.60;;;;;;;18.47;53.88;100858.21;102018;1329;61219;-83
2022/11/06 04:04:03;;;;;;;34.20;21.90;;;;;;;18.50;53.97;100858.39;102079;1329;73492;-82
2022/11/06 04:06:39;;;;;;;34.30;23.30;;;;;;;18.52;54.15;100854.48;102121;1326;75604;-82
2022/11/06 04:14:35;;;;;;;34.70;23.50;;;;;;;18.61;53.94;100864.67;102094;1326;72542;-82
2022/11/06 04:17:03;;;;;;;31.60;22.10;;;;;;;18.62;53.72;100862.29;102080;1326;75690;-82
2022/11/06 04:19:28;;;;;;;32.30;22.70;;;;;;;18.63;53.74;100861.50;102114;1324;61307;-82
2022/11/06 04:22:09;;;;;;;33.80;22.30;;;;;;;18.63;53.80;100859.04;102023;1334;61321;-82
2022/11/06 04:27:49;;;;;;;34.40;21.70;;;;;;;18.62;53.55;100856.44;102236;1324;75506;-82
2022/11/06 04:30:16;;;;;;;29.90;21.20;;;;;;;18.61;53.58;100860.77;102152;1326;61286;-82
2022/11/06 04:32:50;;;;;;;30.70;22.60;;;;;;;18.60;53.78;100856.39;102095;1329;61259;-83
2022/11/06 04:35:40;;;;;;;35.90;22.00;;;;;;;18.58;53.65;100856.09;101974;1333;72411;-82
2022/11/06 04:38:32;;;;;;;31.20;21.50;;;;;;;18.57;53.65;100857.05;102072;1329;74548;-82
2022/11/06 04:41:11;;;;;;;31.90;22.10;;;;;;;18.55;53.78;100861.23;101966;1326;61683;-83
2022/11/06 04:43:42;;;;;;;30.70;21.40;;;;;;;18.55;53.61;100861.08;102047;1333;61333;-83
2022/11/06 04:46:09;;;;;;;30.80;21.50;;;;;;;18.54;53.77;100862.23;102093;1326;72491;-82
2022/11/06 04:48:35;;;;;;;32.50;21.50;;;;;;;18.53;53.59;100864.94;102083;1329;75465;-82
2022/11/06 04:51:02;;;;;;;28.30;21.70;;;;;;;18.53;53.77;100865.54;102064;1329;61217;-82
2022/11/06 04:53:28;;;;;;;30.30;21.70;;;;;;;18.52;53.63;100867.52;102134;1326;61188;-83
2022/11/06 04:55:55;;;;;;;31.50;20.30;;;;;;;18.51;53.84;100863.29;101978;1329;72369;-83
2022/11/06 04:58:21;;;;;;;31.50;21.20;;;;;;;18.50;53.76;100866.55;102044;1335;74422;-82
2022/11/06 05:00:48;;;;;;;31.90;21.50;;;;;;;18.50;53.72;100867.46;102123;1326;61373;-82
2022/11/06 05:03:13;;;;;;;29.30;20.70;;;;;;;18.49;53.66;100867.86;102066;1329;61310;-82
2022/11/06 05:05:39;;;;;;;27.80;19.80;;;;;;;18.49;53.81;100871.48;101975;1329;61305;-82
2022/11/06 05:08:05;;;;;;;29.90;19.80;;;;;;;18.48;53.74;100872.59;101995;1329;61346;-82
2022/11/06 05:10:30;;;;;;;30.70;20.40;;;;;;;18.48;53.81;100871.33;102091;1320;61307;-82
2022/11/06 05:12:56;;;;;;;31.50;20.20;;;;;;;18.47;53.83;100872.96;102148;1326;61111;-84
2022/11/06 05:15:22;;;;;;;30.00;20.80;;;;;;;18.47;53.75;100871.04;102085;1329;61169;-82
2022/11/06 05:17:48;;;;;;;29.60;19.60;;;;;;;18.46;53.85;100869.84;102081;1326;72558;-82
2022/11/06 05:20:37;;;;;;;33.40;20.90;;;;;;;18.46;53.82;100879.65;102130;1324;61356;-82
2022/11/06 05:23:02;;;;;;;29.70;20.20;;;;;;;18.46;53.79;100889.48;101813;1335;61436;-82
2022/11/06 05:25:30;;;;;;;27.10;18.60;;;;;;;18.45;53.77;100897.17;101792;1331;61401;-82
2022/11/06 05:27:55;;;;;;;28.60;20.00;;;;;;;18.45;53.94;100900.21;101766;1324;73558;-81
2022/11/06 05:30:22;;;;;;;28.50;20.10;;;;;;;18.45;53.87;100900.75;101751;1339;61456;-83
2022/11/06 05:32:47;;;;;;;26.40;18.50;;;;;;;18.45;53.92;100904.48;101795;1339;61306;-83
2022/11/06 05:35:14;;;;;;;23.90;17.30;;;;;;;18.47;53.94;100912.04;101776;1333;61818;-83
2022/11/06 05:37:40;;;;;;;27.10;18.20;;;;;;;18.50;53.85;100912.75;101826;1332;61245;-83
2022/11/06 05:40:07;;;;;;;26.70;18.50;;;;;;;18.52;54.15;100919.72;101768;1340;61346;-83
2022/11/06 05:42:35;;;;;;;28.50;19.00;;;;;;;18.55;54.05;100921.68;101794;1338;61286;-81
2022/11/06 05:45:01;;;;;;;29.70;18.70;;;;;;;18.59;53.98;100930.89;101817;1335;61301;-82
2022/11/06 05:47:26;;;;;;;26.60;18.70;;;;;;;18.61;54.07;100930.64;101783;1340;61426;-82
2022/11/06 05:49:52;;;;;;;26.60;18.80;;;;;;;18.62;53.84;100935.37;101061;1330;980511;-82
2022/11/06 05:52:17;;;;;;;27.40;18.30;;;;;;;18.63;53.83;100928.20;101817;1336;61915;-83
2022/11/06 05:54:43;;;;;;;25.40;17.80;;;;;;;18.63;53.94;100928.73;101802;1333;61383;-83
2022/11/06 05:57:08;;;;;;;24.30;18.30;;;;;;;18.64;53.66;100927.45;101762;1335;61358;-83
2022/11/06 05:59:34;;;;;;;28.90;19.00;;;;;;;18.63;53.66;100937.83;101860;1329;61391;-83
2022/11/06 06:02:00;;;;;;;29.20;18.50;;;;;;;18.63;53.78;100939.98;102065;1329;61404;-83
2022/11/06 06:04:25;;;;;;;24.60;17.50;;;;;;;18.63;53.70;100944.09;101961;1329;61384;-83
2022/11/06 06:06:51;;;;;;;24.40;17.50;;;;;;;18.62;53.73;100948.61;102202;1330;61830;-83
2022/11/06 06:09:16;;;;;;;26.80;18.00;;;;;;;18.61;53.56;100950.42;102050;1327;61207;-83
2022/11/06 06:11:42;;;;;;;26.80;18.90;;;;;;;18.60;53.76;100952.63;102026;1329;61361;-83
2022/11/06 06:14:07;;;;;;;23.30;17.60;;;;;;;18.58;53.70;100959.80;102074;1330;61313;-82
2022/11/06 06:16:33;;;;;;;23.60;16.70;;;;;;;18.58;53.64;100958.59;102160;1327;61283;-82
2022/11/06 06:18:58;;;;;;;26.90;17.80;;;;;;;18.57;53.69;100966.86;102153;1326;61388;-83
2022/11/06 06:21:24;;;;;;;28.00;17.90;;;;;;;18.56;53.64;100967.81;102152;1327;61329;-83
2022/11/06 06:23:49;;;;;;;24.70;17.20;;;;;;;18.56;53.78;100970.66;102150;1327;61313;-83
2022/11/06 06:26:15;;;;;;;25.40;17.50;;;;;;;18.54;53.64;100977.55;102108;1328;61446;-83
2022/11/06 06:28:41;;;;;;;22.30;16.90;;;;;;;18.54;53.78;100975.25;102141;1324;61282;-82
2022/11/06 06:31:06;;;;;;;22.50;16.20;;;;;;;18.54;53.70;100981.14;102090;1326;61312;-83
2022/11/06 06:33:32;;;;;;;23.20;16.80;;;;;;;18.52;53.88;100983.86;102014;1330;61445;-82
2022/11/06 06:35:57;;;;;;;23.10;16.50;;;;;;;18.52;53.61;100986.20;102043;1329;61490;-82
2022/11/06 06:38:24;;;;;;;21.60;16.50;;;;;;;18.51;53.80;100988.75;102170;1325;61490;-82
2022/11/06 06:40:50;;;;;;;25.00;16.80;;;;;;;18.51;53.62;100990.89;102056;1326;61328;-82
2022/11/06 06:43:15;;;;;;;22.10;15.40;;;;;;;18.51;53.91;100989.30;102059;1327;61393;-83
2022/11/06 06:45:41;;;;;;;22.20;15.70;;;;;;;18.51;53.74;100992.52;102063;1329;61297;-83
2022/11/06 06:48:07;;;;;;;23.70;16.00;;;;;;;18.51;53.81;100995.56;102053;1333;61378;-82
2022/11/06 06:50:32;;;;;;;28.80;16.50;;;;;;;18.50;53.85;100996.86;102028;1329;61332;-82
2022/11/06 06:52:58;;;;;;;23.90;16.50;;;;;;;18.50;53.93;100993.48;102072;1329;61351;-82
2022/11/06 06:55:24;;;;;;;22.60;16.80;;;;;;;18.50;53.84;100999.02;102133;1323;61832;-82
2022/11/06 06:57:57;;;;;;;26.50;16.60;;;;;;;18.49;53.76;100995.29;101978;1328;61270;-83
2022/11/06 07:00:22;;;;;;;24.50;15.80;;;;;;;18.49;53.83;100998.54;102100;1321;74533;-82
2022/11/06 07:02:48;;;;;;;24.00;16.70;;;;;;;18.49;53.85;100998.89;102128;1332;61500;-83
2022/11/06 07:05:13;;;;;;;23.20;16.00;;;;;;;18.48;53.79;100999.79;102225;1326;61660;-82
2022/11/06 07:07:39;;;;;;;22.70;16.40;;;;;;;18.48;53.75;100999.81;102118;1313;61308;-83
2022/11/06 07:10:05;;;;;;;22.50;14.90;;;;;;;18.48;53.88;101004.80;102178;1324;61765;-83
2022/11/06 07:12:30;;;;;;;23.70;15.60;;;;;;;18.48;53.89;101001.09;101940;1334;73262;-82
2022/11/06 07:14:56;;;;;;;21.50;15.40;;;;;;;18.48;53.97;101004.13;102043;1329;61804;-83
2022/11/06 07:17:21;;;;;;;26.00;15.10;;;;;;;18.48;53.89;101010.02;102076;1327;61334;-82
2022/11/06 07:19:47;;;;;;;23.60;16.00;;;;;;;18.48;53.75;101009.29;102141;1330;61423;-82
2022/11/06 07:22:12;;;;;;;23.70;14.60;;;;;;;18.47;53.98;101008.77;102068;1329;61999;-83
2022/11/06 07:24:38;;;;;;;23.60;14.00;;;;;;;18.49;53.97;101009.40;102085;1329;74523;-83
2022/11/06 07:27:04;;;;;;;21.80;13.50;;;;;;;18.52;54.10;101011.55;102123;1329;61338;-83
2022/11/06 07:29:29;;;;;;;22.10;15.00;;;;;;;18.55;54.18;101008.69;102057;1327;61413;-82
2022/11/06 07:31:55;;;;;;;18.90;13.30;;;;;;;18.59;54.26;101010.77;101991;1326;61322;-83
2022/11/06 07:34:20;;;;;;;21.10;13.20;;;;;;;18.63;54.19;101009.32;102092;1329;61307;-82
2022/11/06 07:36:46;;;;;;;23.00;15.00;;;;;;;18.66;54.09;101009.33;102043;1335;74734;-83
2022/11/06 07:39:11;;;;;;;20.20;15.00;;;;;;;18.68;53.81;101010.83;101990;1332;61856;-83
2022/11/06 07:41:37;;;;;;;18.60;13.80;;;;;;;18.69;53.99;101011.99;102059;1329;61307;-82
2022/11/06 07:44:03;;;;;;;21.80;14.10;;;;;;;18.70;53.89;101014.05;102136;1325;61253;-83
2022/11/06 07:46:28;;;;;;;25.30;15.30;;;;;;;18.70;53.83;101014.77;102086;1330;61310;-82
2022/11/06 07:48:54;;;;;;;19.60;14.50;;;;;;;18.70;53.80;101019.77;101913;1331;74841;-82
2022/11/06 07:51:19;;;;;;;20.90;14.00;;;;;;;18.69;53.79;101018.59;102121;1323;61278;-82
2022/11/06 07:53:45;;;;;;;23.10;14.80;;;;;;;18.68;53.77;101020.59;101987;1329;61385;-83
2022/11/06 07:56:10;;;;;;;22.30;14.20;;;;;;;18.67;53.69;101023.50;102082;1326;61568;-82
2022/11/06 07:58:36;;;;;;;20.40;13.80;;;;;;;18.67;53.58;101025.51;102101;1327;61426;-82
2022/11/06 08:01:02;;;;;;;23.20;14.60;;;;;;;18.65;53.84;101033.07;101986;1330;74851;-82
2022/11/06 08:03:28;;;;;;;20.50;13.80;;;;;;;18.65;53.61;101036.85;102060;1324;61357;-82
2022/11/06 08:05:55;;;;;;;23.00;13.90;;;;;;;18.64;53.68;101038.69;102100;1329;61383;-82
2022/11/06 08:08:21;;;;;;;19.20;13.90;;;;;;;18.62;53.67;101039.14;102071;1329;61229;-82
2022/11/06 08:10:46;;;;;;;22.10;13.70;;;;;;;18.61;53.62;101038.11;102099;1326;61383;-82
2022/11/06 08:13:15;;;;;;;22.70;13.60;;;;;;;18.59;53.64;101035.89;102072;1334;61349;-82
2022/11/06 08:15:40;;;;;;;20.70;14.30;;;;;;;18.58;53.47;101038.46;102132;1330;61235;-82
2022/11/06 08:18:07;;;;;;;22.20;13.90;;;;;;;18.57;53.66;101038.48;102193;1323;61290;-83
2022/11/06 08:20:35;;;;;;;19.60;13.80;;;;;;;18.57;53.65;101042.63;102052;1325;61388;-82
2022/11/06 08:23:01;;;;;;;18.30;12.90;;;;;;;18.55;53.78;101048.77;102133;1332;61350;-82
2022/11/06 08:25:27;;;;;;;19.70;13.50;;;;;;;18.54;53.58;101048.83;102025;1329;61277;-83
2022/11/06 08:27:56;;;;;;;18.90;12.70;;;;;;;18.54;53.81;101050.13;102052;1330;62511;-82
2022/11/06 08:30:22;;;;;;;;;;;;;;;18.53;53.71;101047.30;101976;1329;74596;-83
2022/11/06 08:32:47;;;;;;;17.90;13.00;;;;;;;18.50;53.58;101051.77;102103;1332;61414;-83
2022/11/06 08:35:13;;;;;;;20.20;14.00;;;;;;;18.49;53.65;101055.54;102065;1329;61430;-83
2022/11/06 08:37:38;;;;;;;23.80;13.80;;;;;;;18.49;53.66;101056.42;102119;1324;61749;-82
2022/11/06 08:40:04;;;;;;;18.70;12.90;;;;;;;18.49;53.70;101057.71;102112;1327;61385;-82
2022/11/06 08:42:30;;;;;;;18.60;13.10;;;;;;;18.48;53.67;101059.70;101969;1324;74669;-82
2022/11/06 08:44:56;;;;;;;20.70;13.80;;;;;;;18.48;53.76;101066.14;102062;1330;61313;-82
2022/11/06 08:47:21;;;;;;;21.80;13.60;;;;;;;18.47;53.73;101066.18;102082;1332;61331;-83
2022/11/06 08:49:47;;;;;;;20.20;12.70;;;;;;;18.47;53.63;101070.43;102071;1326;61203;-83
2022/11/06 08:52:12;;;;;;;19.40;12.00;;;;;;;18.46;53.86;101071.02;102034;1333;61903;-81
2022/11/06 08:54:38;;;;;;;21.00;13.60;;;;;;;18.46;53.75;101073.18;102132;1319;61956;-81
2022/11/06 08:57:03;;;;;;;20.10;13.10;;;;;;;18.46;53.71;101076.05;102060;1329;61318;-82
2022/11/06 08:59:29;;;;;;;19.60;14.00;;;;;;;18.46;53.73;101071.58;102046;1324;61276;-82
2022/11/06 09:01:58;;;;;;;18.20;12.60;;;;;;;18.46;53.87;101072.48;102037;1325;61334;-83
2022/11/06 09:04:24;;;;;;;;;;;;;;;18.46;53.76;101074.09;102020;1329;74429;-83
2022/11/06 09:06:49;;;;;;;21.70;13.30;;;;;;;18.43;53.88;101075.11;102069;1332;61726;-83
2022/11/06 09:09:15;;;;;;;18.60;12.20;;;;;;;18.44;53.81;101073.30;102056;1330;61350;-82
2022/11/06 09:11:41;;;;;;;16.90;12.80;;;;;;;18.44;53.84;101075.63;101980;1334;61362;-82
2022/11/06 09:14:06;;;;;;;20.80;13.20;;;;;;;18.44;53.82;101080.95;102122;1330;61437;-83
2022/11/06 09:16:32;;;;;;;18.20;12.20;;;;;;;18.44;53.81;101075.96;102105;1332;75600;-83
2022/11/06 09:18:57;;;;;;;21.50;13.50;;;;;;;18.44;53.71;101078.82;102032;1330;61363;-83
2022/11/06 09:21:23;;;;;;;20.60;12.40;;;;;;;18.45;53.87;101075.91;102143;1326;61347;-83
2022/11/06 09:23:48;;;;;;;15.80;11.60;;;;;;;18.44;53.74;101070.79;101969;1328;61766;-82
2022/11/06 09:26:14;;;;;;;19.40;12.50;;;;;;;18.45;53.67;101072.37;102002;1330;61308;-82
2022/11/06 09:28:40;;;;;;;18.50;11.70;;;;;;;18.45;53.85;101072.36;102093;1333;61336;-82
2022/11/06 09:31:06;;;;;;;17.60;12.80;;;;;;;18.45;53.86;101068.63;102022;1335;61353;-83
2022/11/06 09:33:32;;;;;;;20.20;12.30;;;;;;;18.45;53.72;101066.66;102077;1324;61945;-83
2022/11/06 09:35:59;;;;;;;18.60;12.70;;;;;;;18.45;53.75;101072.34;102101;1330;61317;-83
2022/11/06 09:38:24;;;;;;;17.40;12.30;;;;;;;18.45;53.85;101068.42;102056;1332;61120;-83
2022/11/06 09:40:52;;;;;;;17.50;12.30;;;;;;;18.45;53.88;101068.44;102094;1324;61460;-83
2022/11/06 09:43:30;;;;;;;18.70;12.50;;;;;;;18.45;53.80;101066.11;101998;1330;61327;-83
2022/11/06 09:45:57;;;;;;;18.80;12.30;;;;;;;18.44;53.86;101062.58;102098;1332;72525;-82
2022/11/06 09:48:32;;;;;;;19.60;11.90;;;;;;;18.46;53.76;101063.59;102131;1331;74527;-82
2022/11/06 09:51:20;;;;;;;18.60;12.10;;;;;;;18.45;53.82;101062.17;101988;1329;61271;-82
2022/11/06 09:54:09;;;;;;;16.70;12.20;;;;;;;18.46;53.87;101060.04;101982;1334;61357;-82
2022/11/06 09:56:35;;;;;;;21.90;12.50;;;;;;;18.45;53.88;101057.39;102174;1332;72449;-82
2022/11/06 09:59:03;;;;;;;20.40;13.10;;;;;;;18.46;53.91;101058.23;102037;1330;74554;-81
2022/11/06 10:02:02;;;;;;;19.90;12.60;;;;;;;18.46;53.94;101054.84;102029;1330;61357;-82
2022/11/06 10:04:48;;;;;;;17.90;12.70;;;;;;;18.45;53.71;101058.97;102113;1329;61311;-82
2022/11/06 10:07:34;;;;;;;17.30;12.50;;;;;;;18.45;53.91;101054.69;101985;1326;73820;-82
2022/11/06 10:10:00;;;;;;;17.60;12.30;;;;;;;18.46;53.84;101053.98;101982;1324;75617;-82
2022/11/06 10:13:17;;;;;;;16.40;11.70;;;;;;;18.46;53.82;101059.30;101982;1328;61316;-82
2022/11/06 10:15:58;;;;;;;17.50;12.10;;;;;;;18.46;53.78;101053.23;102104;1330;61245;-82
2022/11/06 10:18:50;;;;;;;17.90;11.70;;;;;;;18.46;53.89;101056.08;101985;1332;73404;-82
2022/11/06 10:21:18;;;;;;;21.20;12.70;;;;;;;18.46;53.86;101056.60;102078;1332;74521;-83
2022/11/06 10:23:53;;;;;;;19.40;12.10;;;;;;;18.47;53.86;101058.90;102139;1323;61204;-82
2022/11/06 10:26:22;;;;;;;18.50;12.40;;;;;;;18.47;53.68;101057.29;102125;1328;61197;-81
2022/11/06 10:28:48;;;;;;;17.90;12.10;;;;;;;18.47;53.86;101054.80;101993;1329;73477;-83
2022/11/06 10:31:17;;;;;;;20.20;12.10;;;;;;;18.47;53.76;101054.98;102186;1323;61720;-83
2022/11/06 10:33:45;;;;;;;18.40;11.90;;;;;;;18.46;53.75;101048.93;102101;1326;61533;-82
2022/11/06 10:36:35;;;;;;;20.90;12.50;;;;;;;18.47;53.80;101046.23;102112;1333;61187;-82
2022/11/06 10:39:02;;;;;;;15.80;11.80;;;;;;;18.46;53.81;101043.41;102099;1332;74079;-81
2022/11/06 10:41:31;;;;;;;16.40;11.20;;;;;;;18.46;53.87;101044.30;102082;1327;75651;-82
2022/11/06 10:44:21;;;;;;;20.30;12.40;;;;;;;18.47;53.83;101043.02;102070;1329;61227;-82
2022/11/06 10:47:20;;;;;;;18.80;11.90;;;;;;;18.46;53.82;101037.36;102127;1332;61454;-82
2022/11/06 10:49:50;;;;;;;17.90;12.30;;;;;;;18.46;53.76;101038.42;101758;1338;73937;-81
2022/11/06 10:52:34;;;;;;;19.50;11.90;;;;;;;18.47;53.93;101034.30;101807;1338;74532;-82
2022/11/06 10:55:31;;;;;;;18.20;12.40;;;;;;;18.46;53.95;101031.64;101828;1339;61339;-82
2022/11/06 10:57:58;;;;;;;16.50;12.80;;;;;;;18.46;53.86;101029.33;101815;1329;61444;-83
2022/11/06 11:00:24;;;;;;;17.70;11.50;;;;;;;18.47;53.82;101030.91;101811;1338;73562;-82
2022/11/06 11:02:55;;;;;;;15.40;10.70;;;;;;;18.49;53.91;101027.94;101773;1336;61273;-83
2022/11/06 11:05:21;;;;;;;15.70;11.10;;;;;;;18.52;54.07;101026.30;101857;1332;61265;-83
2022/11/06 11:07:48;;;;;;;19.60;11.30;;;;;;;18.56;54.13;101020.05;101789;1338;61370;-82
2022/11/06 11:10:39;;;;;;;17.20;11.70;;;;;;;18.59;54.16;101015.59;101806;1332;61165;-82
2022/11/06 11:13:05;;;;;;;19.60;12.60;;;;;;;18.63;54.09;101011.30;101788;1338;75786;-83
2022/11/06 11:15:44;;;;;;;20.60;12.10;;;;;;;18.65;53.92;101010.79;101792;1324;61331;-83
2022/11/06 11:18:12;;;;;;;17.80;12.00;;;;;;;18.67;53.74;101008.02;101841;1338;61295;-83
2022/11/06 11:20:39;;;;;;;21.70;12.80;;;;;;;18.68;53.86;101004.92;101811;1336;73802;-82
2022/11/06 11:23:15;;;;;;;19.00;12.80;;;;;;;18.68;53.94;101003.30;101720;1334;74681;-82